createdAt,value
2023-09-18T00:01:34.243Z,81.60059
2023-09-18T00:03:34.156Z,80.91309
2023-09-18T00:05:34.197Z,82.09375
2023-09-18T00:09:13.921Z,81.43848
2023-09-18T00:11:14.033Z,81.36816
2023-09-18T00:13:13.894Z,81.25195
2023-09-18T00:15:14.042Z,81.1084
2023-09-18T00:17:13.977Z,81.00586
2023-09-18T00:19:13.884Z,80.90625
2023-09-18T00:21:14.729Z,81.8584
2023-09-18T00:24:04.312Z,81.45215
2023-09-18T00:26:04.202Z,81.31152
2023-09-18T00:28:04.399Z,81.37695
2023-09-18T00:30:04.607Z,81.23438
2023-09-18T00:32:04.407Z,81.15039
2023-09-18T00:34:04.196Z,81.47461
2023-09-18T00:36:04.172Z,81.11328
2023-09-18T00:38:59.284Z,80.8916
2023-09-18T00:40:59.216Z,80.88086
2023-09-18T00:42:59.104Z,80.94629
2023-09-18T00:44:59.103Z,81.00586
2023-09-18T00:46:59.162Z,80.87402
2023-09-18T00:48:59.700Z,81.05273
2023-09-18T00:50:59.247Z,81.14844
2023-09-18T00:54:15.221Z,81.00781
2023-09-18T00:56:15.222Z,80.90039
2023-09-18T00:58:15.151Z,81.14063
2023-09-18T01:00:15.229Z,81.15332
2023-09-18T01:02:15.488Z,80.88672
2023-09-18T01:04:15.296Z,81.34668
2023-09-18T01:06:15.158Z,81.13965
2023-09-18T01:09:00.934Z,80.96387
2023-09-18T01:11:01.014Z,81.38379
2023-09-18T01:13:00.907Z,81.13379
2023-09-18T01:15:01.360Z,80.86133
2023-09-18T01:17:01.217Z,80.87012
2023-09-18T01:19:00.914Z,80.97266
2023-09-18T01:21:01.091Z,80.95996
2023-09-18T01:23:00.953Z,81.19141
2023-09-18T01:24:33.048Z,81.3252
2023-09-18T01:26:32.043Z,81.22168
2023-09-18T01:28:31.561Z,81.6416
2023-09-18T01:30:31.520Z,81.63281
2023-09-18T01:32:32.137Z,81.12305
2023-09-18T01:34:31.517Z,81.0498
2023-09-18T01:36:31.481Z,81.34082
2023-09-18T01:39:18.915Z,81.65527
2023-09-18T01:41:19.110Z,81.77441
2023-09-18T01:43:18.845Z,81.22852
2023-09-18T01:45:19.123Z,81.34961
2023-09-18T01:47:18.937Z,81.37598
2023-09-18T01:49:18.846Z,81.62891
2023-09-18T01:51:19.137Z,81.68848
2023-09-18T01:53:18.891Z,81.67773
2023-09-18T01:54:59.038Z,81.82129
2023-09-18T01:56:59.094Z,81.91309
2023-09-18T01:58:59.747Z,82.09766
2023-09-18T02:00:59.724Z,82.23242
2023-09-18T02:03:18.378Z,82.5332
2023-09-18T02:05:09.595Z,82.47656
2023-09-18T02:06:59.832Z,82.45215
2023-09-18T02:10:23.250Z,82.88477
2023-09-18T02:12:22.958Z,82.70996
2023-09-18T02:14:22.911Z,82.87207
2023-09-18T02:16:23.075Z,83.13574
2023-09-18T02:18:23.005Z,83.01855
2023-09-18T02:20:23.091Z,82.91504
2023-09-18T02:22:22.928Z,82.62109
2023-09-18T02:25:15.140Z,82.72461
2023-09-18T02:27:19.480Z,83.02441
2023-09-18T02:29:15.563Z,82.8125
2023-09-18T02:31:15.453Z,82.90723
2023-09-18T02:33:15.729Z,83.26172
2023-09-18T02:35:15.394Z,84.36719
2023-09-18T02:37:15.268Z,84.30957
2023-09-18T02:40:17.640Z,83.89746
2023-09-18T02:42:17.618Z,83.61621
2023-09-18T02:44:17.836Z,83.19531
2023-09-18T02:46:17.993Z,83.51855
2023-09-18T02:48:17.719Z,83.03418
2023-09-18T02:50:17.665Z,83.33008
2023-09-18T02:52:17.708Z,83.38672
2023-09-18T02:55:17.620Z,83.33496
2023-09-18T02:57:17.585Z,82.98047
2023-09-18T02:59:17.517Z,82.86133
2023-09-18T03:01:17.592Z,82.9248
2023-09-18T03:03:17.623Z,83.01953
2023-09-18T03:05:17.428Z,83.14941
2023-09-18T03:07:17.549Z,83.0498
2023-09-18T03:09:17.658Z,82.41211
2023-09-18T03:10:25.863Z,82.42773
2023-09-18T03:12:25.857Z,82.75879
2023-09-18T03:14:25.973Z,82.29883
2023-09-18T03:16:26.105Z,82.59766
2023-09-18T03:18:25.803Z,82.90625
2023-09-18T03:20:25.972Z,83.11523
2023-09-18T03:22:25.882Z,82.69141
2023-09-18T03:24:26.017Z,82.65527
2023-09-18T03:25:55.299Z,82.47168
2023-09-18T03:27:54.185Z,82.52441
2023-09-18T03:29:54.343Z,82.39844
2023-09-18T03:31:54.238Z,82.40625
2023-09-18T03:33:54.303Z,82.52832
2023-09-18T03:35:54.142Z,82.14063
2023-09-18T03:37:54.252Z,82.51074
2023-09-18T03:41:30.526Z,82.71094
2023-09-18T03:43:30.488Z,82.43262
2023-09-18T03:45:30.668Z,82.27539
2023-09-18T03:47:31.006Z,82.00586
2023-09-18T03:49:30.647Z,81.48926
2023-09-18T03:51:32.992Z,81.99316
2023-09-18T03:53:30.672Z,81.79297
2023-09-18T03:55:54.046Z,82.37207
2023-09-18T03:57:53.442Z,81.94043
2023-09-18T03:59:53.428Z,82.16113
2023-09-18T04:01:53.609Z,82.56543
2023-09-18T04:03:53.819Z,82.13867
2023-09-18T04:05:53.780Z,81.86816
2023-09-18T04:07:53.722Z,82.41211
2023-09-18T04:09:53.469Z,82.03711
2023-09-18T04:11:47.928Z,82.20605
2023-09-18T04:13:48.037Z,82.0127
2023-09-18T04:15:48.028Z,82.5791
2023-09-18T04:17:48.481Z,82.54102
2023-09-18T04:19:47.915Z,82.9834
2023-09-18T04:21:47.948Z,82.82422
2023-09-18T04:23:48.177Z,82.70313
2023-09-18T04:26:51.830Z,83.16016
2023-09-18T04:28:53.234Z,82.85352
2023-09-18T04:30:51.814Z,82.80762
2023-09-18T04:32:51.904Z,82.59277
2023-09-18T04:34:51.896Z,82.57617
2023-09-18T04:36:51.689Z,82.33398
2023-09-18T04:38:52.204Z,82.16309
2023-09-18T04:41:41.263Z,82.13574
2023-09-18T04:43:40.897Z,81.86719
2023-09-18T04:45:41.036Z,82.07813
2023-09-18T04:47:41.213Z,82.08887
2023-09-18T04:49:40.782Z,82.2334
2023-09-18T04:51:40.769Z,82.42188
2023-09-18T04:53:41.390Z,82.68848
2023-09-18T04:56:46.204Z,82.73242
2023-09-18T04:58:46.200Z,82.70313
2023-09-18T05:00:46.267Z,81.38574
2023-09-18T05:02:46.955Z,78.33496
2023-09-18T05:04:46.467Z,77.0166
2023-09-18T05:06:46.441Z,77.95898
2023-09-18T05:08:46.310Z,79.12891
2023-09-18T05:11:51.834Z,77.09668
2023-09-18T05:13:50.752Z,78.46777
2023-09-18T05:15:50.801Z,77.12109
2023-09-18T05:17:50.960Z,73.95215
2023-09-18T05:19:50.691Z,68.91602
2023-09-18T05:21:50.919Z,67.91797
2023-09-18T05:23:50.863Z,65.9668
2023-09-18T05:27:28.101Z,64.8877
2023-09-18T05:29:28.139Z,67.31836
2023-09-18T05:31:27.912Z,70.29297
2023-09-18T05:33:28.884Z,71.20117
2023-09-18T05:35:27.873Z,72.77441
2023-09-18T05:37:27.874Z,73.18848
2023-09-18T05:39:28.065Z,74.2998
2023-09-18T05:42:59.688Z,74.72559
2023-09-18T05:44:59.552Z,75.30273
2023-09-18T05:46:59.449Z,75.92676
2023-09-18T05:48:59.524Z,75.84277
2023-09-18T05:50:59.882Z,76.34961
2023-09-18T05:52:59.588Z,75.64551
2023-09-18T05:54:59.513Z,75.08496
2023-09-18T05:57:42.305Z,74.50098
2023-09-18T05:59:42.092Z,74.49219
2023-09-18T06:01:42.052Z,74.16309
2023-09-18T06:03:42.223Z,74.33008
2023-09-18T06:05:42.066Z,73.13379
2023-09-18T06:07:42.038Z,73.96973
2023-09-18T06:09:42.162Z,73.55469
2023-09-18T06:12:55.346Z,74.31055
2023-09-18T06:14:55.290Z,73.6875
2023-09-18T06:16:55.303Z,74.03125
2023-09-18T06:18:55.659Z,73.88184
2023-09-18T06:20:55.164Z,74.23145
2023-09-18T06:22:55.230Z,73.79492
2023-09-18T06:24:55.177Z,74.04004
2023-09-18T06:28:14.356Z,73.29395
2023-09-18T06:30:14.223Z,72.56445
2023-09-18T06:32:14.006Z,72.11914
2023-09-18T06:34:14.323Z,72.73926
2023-09-18T06:36:14.083Z,71.24707
2023-09-18T06:38:14.098Z,72.47852
2023-09-18T06:40:14.212Z,72.37012
2023-09-18T06:42:59.726Z,73.30762
2023-09-18T06:44:59.757Z,70.5957
2023-09-18T06:46:59.694Z,71.22559
2023-09-18T06:48:59.965Z,71.60059
2023-09-18T06:50:59.921Z,71.55664
2023-09-18T06:52:59.652Z,72.37891
2023-09-18T06:54:59.844Z,72.69141
2023-09-18T06:58:27.071Z,71.49121
2023-09-18T07:00:25.934Z,70.44141
2023-09-18T07:02:26.043Z,70.87793
2023-09-18T07:04:26.143Z,69.80664
2023-09-18T07:06:25.966Z,70.27246
2023-09-18T07:08:26.310Z,69.91699
2023-09-18T07:10:26.144Z,69.30859
2023-09-18T07:13:25.260Z,69.19238
2023-09-18T07:15:25.302Z,69.04199
2023-09-18T07:17:25.439Z,69.31836
2023-09-18T07:19:25.707Z,70.10938
2023-09-18T07:21:25.313Z,70.68555
2023-09-18T07:23:25.319Z,69.67188
2023-09-18T07:25:25.151Z,68.98438
2023-09-18T07:29:03.144Z,68.79883
2023-09-18T07:31:01.256Z,68.87402
2023-09-18T07:33:01.332Z,67.22656
2023-09-18T07:35:01.149Z,69.43945
2023-09-18T07:37:01.267Z,69.78906
2023-09-18T07:39:01.516Z,69.82031
2023-09-18T07:41:01.837Z,70.4502
2023-09-18T10:28:53.136Z,60.12695
2023-09-18T10:30:32.766Z,61.14941
2023-09-18T10:32:32.948Z,58.21484
2023-09-18T10:34:33.440Z,59.99023
2023-09-18T10:36:35.256Z,57.92676
2023-09-18T10:38:32.907Z,53.71875
2023-09-18T10:40:32.915Z,56.01465
2023-09-18T10:42:33.048Z,55.38086
2023-09-18T10:44:33.884Z,54.98242
2023-09-18T10:46:34.019Z,54.01367
2023-09-18T10:48:34.126Z,53.8418
2023-09-18T10:50:33.926Z,54.54395
2023-09-18T10:52:33.964Z,54.35547
2023-09-18T10:54:33.631Z,54.12891
2023-09-18T10:56:33.777Z,54.5498
2023-09-18T10:59:34.838Z,52.51758
2023-09-18T11:01:35.049Z,53.09082
2023-09-18T11:03:35.342Z,53.33691
2023-09-18T11:05:34.909Z,50.77148
2023-09-18T11:07:34.780Z,51.97754
2023-09-18T11:09:35.241Z,51.86621
2023-09-18T11:11:34.834Z,51.34473
2023-09-18T11:14:40.986Z,50.79688
2023-09-18T11:16:41.114Z,53.15039
2023-09-18T11:18:41.032Z,51.9248
2023-09-18T11:20:40.869Z,51.91797
2023-09-18T11:22:40.581Z,51.2207
2023-09-18T11:24:40.688Z,51.17188
2023-09-18T11:26:40.751Z,52.23145
2023-09-18T11:30:05.210Z,50.79102
2023-09-18T11:32:06.477Z,49.00195
2023-09-18T11:34:05.263Z,48.76074
2023-09-18T11:36:05.305Z,50.49023
2023-09-18T11:38:05.287Z,49.11035
2023-09-18T11:40:05.334Z,50.04688
2023-09-18T11:42:05.626Z,49.68262
2023-09-18T11:45:27.486Z,47.43457
2023-09-18T11:47:27.799Z,47.89453
2023-09-18T11:49:27.815Z,47.4502
2023-09-18T11:51:27.493Z,48.47852
2023-09-18T11:53:29.904Z,47.20605
2023-09-18T11:55:27.713Z,48.00781
2023-09-18T11:57:27.781Z,47.7832
2023-09-18T12:00:27.024Z,45.27441
2023-09-18T12:02:27.257Z,45.77734
2023-09-18T12:04:27.037Z,47.77539
2023-09-18T12:06:27.367Z,46.05957
2023-09-18T12:08:26.948Z,45.08008
2023-09-18T12:10:26.945Z,44.05859
2023-09-18T12:12:27.260Z,45.03418
2023-09-18T12:16:07.213Z,46.33008
2023-09-18T12:18:07.218Z,47.75
2023-09-18T12:20:07.108Z,46.08789
2023-09-18T12:22:07.036Z,44.72363
2023-09-18T12:24:07.175Z,46.90332
2023-09-18T12:26:07.329Z,46.52246
2023-09-18T12:28:07.167Z,47.30176
2023-09-18T12:30:52.128Z,46.12891
2023-09-18T12:32:48.738Z,47.04199
2023-09-18T12:34:49.230Z,47.18359
2023-09-18T12:36:49.643Z,47.66602
2023-09-18T12:38:48.624Z,45.7959
2023-09-18T12:40:48.958Z,47.12305
2023-09-18T12:42:48.916Z,45.6123
2023-09-18T12:45:46.279Z,46.37793
2023-09-18T12:47:46.542Z,44.74609
2023-09-18T12:49:46.261Z,44.86133
2023-09-18T12:51:47.442Z,44.12012
2023-09-18T12:53:46.814Z,45.27734
2023-09-18T12:55:46.256Z,46.19629
2023-09-18T12:57:46.494Z,46.05762
2023-09-18T13:01:15.096Z,43.64844
2023-09-18T13:03:15.193Z,46.68652
2023-09-18T13:05:15.420Z,45.11133
2023-09-18T13:07:15.018Z,44.28516
2023-09-18T13:09:15.459Z,42.84277
2023-09-18T13:11:15.047Z,43.72559
2023-09-18T13:13:14.957Z,45.03516
2023-09-18T13:16:21.584Z,44.27734
2023-09-18T13:18:21.664Z,41.78906
2023-09-18T13:20:21.561Z,44.74121
2023-09-18T13:22:21.596Z,44.28613
2023-09-18T13:24:21.674Z,43.98438
2023-09-18T13:26:21.504Z,43.3457
2023-09-18T13:28:21.515Z,42.70117
2023-09-18T13:32:00.857Z,41.55566
2023-09-18T13:34:00.901Z,41.88184
2023-09-18T13:36:00.711Z,41.78809
2023-09-18T13:38:00.265Z,43.07813
2023-09-18T13:40:00.733Z,42.02539
2023-09-18T13:42:00.370Z,42.50977
2023-09-18T13:44:00.383Z,43.40234
2023-09-18T13:46:31.131Z,41.69629
2023-09-18T13:48:31.168Z,43.76172
2023-09-18T13:50:31.066Z,43.74805
2023-09-18T13:52:31.051Z,43.08105
2023-09-18T13:54:30.979Z,45.20508
2023-09-18T13:56:31.548Z,43.87012
2023-09-18T13:58:30.977Z,44.24512
2023-09-18T14:02:17.851Z,44.10645
2023-09-18T14:04:17.379Z,50.1875
2023-09-18T14:06:17.583Z,43.64648
2023-09-18T14:08:17.587Z,43.36035
2023-09-18T14:10:17.580Z,43.91406
2023-09-18T14:12:17.464Z,47.54199
2023-09-18T14:14:17.734Z,43.21387
2023-09-18T14:16:58.745Z,44.28027
2023-09-18T14:18:57.637Z,45.14355
2023-09-18T14:20:57.592Z,43.7373
2023-09-18T14:22:57.347Z,44.18652
2023-09-18T14:24:57.394Z,44.03906
2023-09-18T14:26:57.403Z,45.95215
2023-09-18T14:28:57.418Z,46.92871
2023-09-18T14:31:50.985Z,48.37793
2023-09-18T14:33:50.838Z,45.53516
2023-09-18T14:35:50.773Z,44.80273
2023-09-18T14:37:50.746Z,45.02148
2023-09-18T14:39:50.640Z,50.06543
2023-09-18T14:41:50.746Z,46.22168
2023-09-18T14:43:50.930Z,46.2041
2023-09-18T14:45:50.743Z,45.37305
2023-09-18T14:46:52.765Z,45.87695
2023-09-18T14:48:52.756Z,45.79297
2023-09-18T14:50:52.682Z,45.98242
2023-09-18T14:52:52.577Z,46.58594
2023-09-18T14:54:52.902Z,47.11133
2023-09-18T14:56:52.772Z,47.05664
2023-09-18T14:58:52.630Z,49.01465
2023-09-18T15:00:53.006Z,49.67578
2023-09-18T15:02:17.831Z,51.78711
2023-09-18T15:04:17.766Z,51.4375
2023-09-18T15:06:17.717Z,47.15332
2023-09-18T15:08:17.678Z,48.25195
2023-09-18T15:10:17.574Z,50.74805
2023-09-18T15:12:17.827Z,50.89063
2023-09-18T15:14:17.550Z,48.76953
2023-09-18T15:17:58.142Z,48.29688
2023-09-18T15:19:57.804Z,49.65137
2023-09-18T15:21:57.753Z,50.58496
2023-09-18T15:23:58.216Z,52.49023
2023-09-18T15:25:57.792Z,49.39844
2023-09-18T15:27:57.914Z,48.86719
2023-09-18T15:29:57.859Z,50.23926
2023-09-18T15:33:00.320Z,52.44336
2023-09-18T15:35:00.216Z,51.84375
2023-09-18T15:37:00.026Z,51.61719
2023-09-18T15:39:00.165Z,53.8252
2023-09-18T15:41:00.205Z,50.94629
2023-09-18T15:43:00.013Z,52.73535
2023-09-18T15:45:00.006Z,54.44824
2023-09-18T15:48:31.887Z,54.23047
2023-09-18T15:50:39.041Z,52.96973
2023-09-18T15:52:31.958Z,54.80078
2023-09-18T15:54:31.559Z,56.46484
2023-09-18T15:56:31.659Z,56.29785
2023-09-18T15:58:32.003Z,55.85254
2023-09-18T16:00:36.269Z,55.38574
2023-09-18T16:03:04.890Z,55.77148
2023-09-18T16:05:04.648Z,56.57617
2023-09-18T16:07:04.593Z,56.1543
2023-09-18T16:09:04.624Z,56.10449
2023-09-18T16:11:04.640Z,56.37305
2023-09-18T16:13:04.720Z,56.8877
2023-09-18T16:15:04.614Z,59.15723
2023-09-18T16:18:13.873Z,58.37207
2023-09-18T16:20:13.557Z,59.25293
2023-09-18T16:22:13.760Z,60.71289
2023-09-18T16:24:14.097Z,61.73633
2023-09-18T16:26:13.591Z,60.7168
2023-09-18T16:28:13.554Z,59.97266
2023-09-18T16:30:13.878Z,58.58887
2023-09-18T16:33:12.516Z,57.94043
2023-09-18T16:35:12.134Z,58.70898
2023-09-18T16:37:12.274Z,60.34668
2023-09-18T16:39:12.299Z,61.52051
2023-09-18T16:41:12.233Z,61.75977
2023-09-18T16:43:12.476Z,62.96094
2023-09-18T16:45:12.208Z,63.42578
2023-09-18T16:47:12.186Z,61.54688
2023-09-18T16:48:47.299Z,63.33691
2023-09-18T16:50:47.252Z,63.89551
2023-09-18T16:52:47.000Z,64.46582
2023-09-18T16:54:50.793Z,64.37207
2023-09-18T16:56:47.290Z,63.33203
2023-09-18T16:58:47.303Z,65.44922
2023-09-18T17:00:47.157Z,64.86621
2023-09-18T17:03:30.484Z,63.70313
2023-09-18T17:05:30.281Z,64.09766
2023-09-18T17:07:33.083Z,65.15625
2023-09-18T17:09:30.342Z,65.48828
2023-09-18T17:11:30.346Z,65.21094
2023-09-18T17:13:30.267Z,66.17676
2023-09-18T17:15:30.343Z,66.88379
2023-09-18T17:17:30.496Z,66.3623
2023-09-18T17:18:55.651Z,65.66406
2023-09-18T17:20:55.600Z,65.28027
2023-09-18T17:22:55.787Z,63.9502
2023-09-18T17:24:55.841Z,64.02734
2023-09-18T17:26:55.539Z,64.82422
2023-09-18T17:28:55.505Z,63.08203
2023-09-18T17:30:55.687Z,63.06934
2023-09-18T17:34:08.904Z,62.71387
2023-09-18T17:36:08.670Z,62.6875
2023-09-18T17:38:08.699Z,61.73633
2023-09-18T17:40:08.740Z,63.61328
2023-09-18T17:42:08.811Z,62.94629
2023-09-18T17:44:08.788Z,62.65918
2023-09-18T17:46:08.871Z,61.00293
2023-09-18T17:49:10.473Z,61.46973
2023-09-18T17:51:10.391Z,60.90527
2023-09-18T17:53:10.256Z,59.87305
2023-09-18T17:55:10.200Z,61.36426
2023-09-18T17:57:10.248Z,61.08398
2023-09-18T17:59:10.068Z,60.86816
2023-09-18T18:01:10.249Z,61.62988
2023-09-18T18:05:01.696Z,62.15039
2023-09-18T18:07:01.450Z,63.09863
2023-09-18T18:09:01.324Z,62.33203
2023-09-18T18:11:01.546Z,61.65625
2023-09-18T18:13:01.477Z,61.71387
2023-09-18T18:15:01.357Z,63.44824
2023-09-18T18:17:01.322Z,61.90918
2023-09-18T18:19:23.843Z,63.65234
2023-09-18T18:21:23.814Z,62.93945
2023-09-18T18:23:24.371Z,64.49707
2023-09-18T18:25:23.996Z,63.63477
2023-09-18T18:27:24.232Z,63.59082
2023-09-18T18:29:23.913Z,64.75488
2023-09-18T18:31:23.948Z,64.77344
2023-09-18T18:33:23.951Z,65.53711
2023-09-18T18:34:38.985Z,65.7832
2023-09-18T18:36:38.918Z,65.9502
2023-09-18T18:38:38.989Z,64.55957
2023-09-18T18:40:42.202Z,64.29395
2023-09-18T18:42:39.211Z,65.57129
2023-09-18T18:44:39.349Z,66.13086
2023-09-18T18:46:38.926Z,64.51855
2023-09-18T18:50:05.751Z,65.93359
2023-09-18T18:52:05.739Z,66.29297
2023-09-18T18:54:05.972Z,66.54199
2023-09-18T18:56:05.908Z,67.01855
2023-09-18T18:58:05.659Z,67.87891
2023-09-18T19:00:05.785Z,68.0332
2023-09-18T19:02:05.980Z,67.86426
2023-09-18T19:05:43.518Z,68.71582
2023-09-18T19:07:43.724Z,68.93359
2023-09-18T19:09:43.383Z,68.92871
2023-09-18T19:11:43.656Z,69.30566
2023-09-18T19:13:43.635Z,69.2627
2023-09-18T19:15:43.567Z,68.99121
2023-09-18T19:17:43.607Z,69.47559
2023-09-18T19:20:27.922Z,68.98242
2023-09-18T19:22:27.441Z,69.13574
2023-09-18T19:24:27.561Z,69.66211
2023-09-18T19:26:27.638Z,69.85059
2023-09-18T19:28:27.565Z,70.10156
2023-09-18T19:30:27.575Z,70.14844
2023-09-18T19:32:27.969Z,70.0918
2023-09-18T19:36:05.512Z,70.75586
2023-09-18T19:38:05.194Z,70.79199
2023-09-18T19:40:05.347Z,71.15332
2023-09-18T19:42:05.613Z,71.29297
2023-09-18T19:44:05.305Z,71.39453
2023-09-18T19:46:05.517Z,70.43164
2023-09-18T19:48:05.870Z,69.07422
2023-09-18T19:50:47.907Z,70.25293
2023-09-18T19:52:47.522Z,69.58496
2023-09-18T19:54:47.590Z,68.34961
2023-09-18T19:56:48.299Z,69.31934
2023-09-18T19:58:47.769Z,67.1416
2023-09-18T20:00:48.154Z,67.3418
2023-09-18T20:02:47.851Z,68.83984
2023-09-18T20:05:51.979Z,69.69141
2023-09-18T20:07:51.516Z,69.71875
2023-09-18T20:09:51.330Z,69.60352
2023-09-18T20:11:51.758Z,70.04297
2023-09-18T20:13:51.591Z,70.30371
2023-09-18T20:15:51.450Z,70.4541
2023-09-18T20:17:51.950Z,68.56641
2023-09-18T20:21:03.044Z,69.27734
2023-09-18T20:23:02.565Z,69.67285
2023-09-18T20:25:02.507Z,69.67188
2023-09-18T20:27:02.539Z,69.51563
2023-09-18T20:29:02.688Z,70.14941
2023-09-18T20:31:02.627Z,70.05078
2023-09-18T20:33:02.509Z,70.23535
2023-09-18T20:36:43.195Z,70.70605
2023-09-18T20:38:44.440Z,70.70898
2023-09-18T20:40:42.759Z,71.07422
2023-09-18T20:42:42.695Z,71.18359
2023-09-18T20:44:42.798Z,70.75098
2023-09-18T20:46:42.628Z,71.03516
2023-09-18T20:48:43.328Z,70.97461
2023-09-18T20:51:32.543Z,71.28125
2023-09-18T20:53:29.453Z,70.30469
2023-09-18T20:55:29.546Z,70.75977
2023-09-18T20:57:29.400Z,70.5166
2023-09-18T20:59:30.502Z,70.89844
2023-09-18T21:01:29.698Z,70.74023
2023-09-18T21:03:29.939Z,70.6084
2023-09-18T21:07:00.411Z,70.89063
2023-09-18T21:09:00.451Z,70.65527
2023-09-18T21:11:00.342Z,71.04004
2023-09-18T21:13:00.409Z,70.80957
2023-09-18T21:15:00.514Z,71.01563
2023-09-18T21:17:00.687Z,70.95508
2023-09-18T21:19:00.566Z,70.52051
2023-09-18T21:21:39.375Z,70.64746
2023-09-18T21:23:39.485Z,71.03027
2023-09-18T21:25:41.159Z,70.96387
2023-09-18T21:27:39.474Z,70.95703
2023-09-18T21:29:39.512Z,70.78027
2023-09-18T21:31:39.734Z,71.41211
2023-09-18T21:33:39.535Z,70.79102
2023-09-18T21:37:11.086Z,72.24512
2023-09-18T21:39:11.144Z,71.68457
2023-09-18T21:41:10.990Z,71.30273
2023-09-18T21:43:11.226Z,71.65234
2023-09-18T21:45:11.045Z,71.58594
2023-09-18T21:47:10.955Z,72.04395
2023-09-18T21:49:11.134Z,71.85254
2023-09-18T21:52:31.602Z,71.5498
2023-09-18T21:54:31.781Z,71.96191
2023-09-18T21:56:31.746Z,72.2373
2023-09-18T21:58:31.851Z,72.25
2023-09-18T22:00:31.555Z,72.21484
2023-09-18T22:02:31.666Z,72.2666
2023-09-18T22:04:31.692Z,72.81641
2023-09-18T22:07:27.834Z,72.90039
2023-09-18T22:09:27.989Z,72.63281
2023-09-18T22:11:27.958Z,73.24219
2023-09-18T22:13:27.971Z,73.15625
2023-09-18T22:15:28.035Z,73.55957
2023-09-18T22:17:28.249Z,73.7666
2023-09-18T22:19:27.929Z,73.97461
2023-09-18T22:22:35.880Z,74.16113
2023-09-18T22:24:35.828Z,74.46289
2023-09-18T22:26:35.794Z,73.91211
2023-09-18T22:28:35.583Z,74.16699
2023-09-18T22:30:35.891Z,73.92871
2023-09-18T22:32:35.726Z,74.3418
2023-09-18T22:34:35.678Z,74.22559
2023-09-18T22:37:41.056Z,74.29492
2023-09-18T22:39:41.069Z,74.1377
2023-09-18T22:41:40.842Z,74.10449
2023-09-18T22:43:40.993Z,73.7373
2023-09-18T22:45:40.737Z,74.2793
2023-09-18T22:47:40.899Z,73.82813
2023-09-18T22:49:40.835Z,73.93359
2023-09-18T22:52:21.307Z,73.46875
2023-09-18T22:54:21.095Z,73.58008
2023-09-18T22:56:21.131Z,74.19238
2023-09-18T22:58:29.890Z,73.92285
2023-09-18T23:00:21.167Z,74.30957
2023-09-18T23:02:21.431Z,73.83301
2023-09-18T23:04:21.107Z,74.00488
2023-09-18T23:06:21.001Z,73.96973
2023-09-18T23:07:34.748Z,73.88184
2023-09-18T23:09:34.677Z,74.01758
2023-09-18T23:11:34.703Z,73.80762
2023-09-18T23:13:34.561Z,73.98535
2023-09-18T23:15:34.641Z,73.93359
2023-09-18T23:17:34.693Z,73.83594
2023-09-18T23:19:34.498Z,73.8291
2023-09-18T23:21:34.606Z,73.89258
2023-09-18T23:23:02.650Z,73.99121
2023-09-18T23:25:02.559Z,73.9873
2023-09-18T23:27:02.668Z,73.82227
2023-09-18T23:29:02.293Z,73.87695
2023-09-18T23:31:02.409Z,73.59277
2023-09-18T23:33:03.037Z,73.85449
2023-09-18T23:35:02.435Z,73.73633
2023-09-18T23:38:37.875Z,74.04492
2023-09-18T23:40:38.070Z,73.98633
2023-09-18T23:42:37.784Z,74.03418
2023-09-18T23:44:37.860Z,73.89063
2023-09-18T23:46:37.852Z,73.91504
2023-09-18T23:48:37.866Z,74.15137
2023-09-18T23:50:37.795Z,74.4707
2023-09-18T23:53:43.235Z,74.22754
2023-09-18T23:55:43.614Z,74.62109
2023-09-18T23:57:43.266Z,74.6123
2023-09-18T23:59:43.196Z,74.7832
